createdAt,value
2018-08-16T00:00:11.937Z,17.07
2018-08-16T00:01:11.899Z,17.10
2018-08-16T00:02:11.854Z,17.14
2018-08-16T00:03:11.816Z,17.10
2018-08-16T00:04:11.768Z,16.99
2018-08-16T00:05:11.731Z,17.04
2018-08-16T00:06:11.684Z,17.01
2018-08-16T00:07:11.641Z,16.98
2018-08-16T00:08:11.597Z,17.02
2018-08-16T00:09:11.559Z,16.99
2018-08-16T00:10:11.517Z,16.99
2018-08-16T00:11:11.474Z,16.94
2018-08-16T00:12:11.430Z,16.98
2018-08-16T00:13:11.387Z,16.89
2018-08-16T00:14:11.348Z,16.87
2018-08-16T00:15:11.307Z,16.95
2018-08-16T00:16:11.262Z,16.84
2018-08-16T00:17:11.221Z,16.94
2018-08-16T00:18:11.185Z,16.87
2018-08-16T00:19:11.133Z,16.84
2018-08-16T00:20:11.094Z,16.95
2018-08-16T00:21:11.052Z,16.92
2018-08-16T00:22:11.008Z,16.94
2018-08-16T00:23:10.975Z,16.87
2018-08-16T00:24:10.924Z,16.83
2018-08-16T00:25:10.883Z,16.82
2018-08-16T00:26:10.844Z,16.82
2018-08-16T00:27:10.795Z,16.89
2018-08-16T00:28:10.756Z,16.86
2018-08-16T00:29:10.715Z,16.82
2018-08-16T00:30:10.673Z,16.84
2018-08-16T00:31:10.627Z,16.86
2018-08-16T00:32:10.587Z,16.80
2018-08-16T00:33:10.543Z,16.74
2018-08-16T00:34:10.501Z,16.73
2018-08-16T00:35:10.456Z,16.73
2018-08-16T00:36:10.415Z,16.77
2018-08-16T00:37:10.377Z,16.74
2018-08-16T00:38:10.336Z,16.77
2018-08-16T00:39:10.291Z,16.74
2018-08-16T00:40:10.248Z,16.73
2018-08-16T00:41:10.204Z,16.76
2018-08-16T00:42:10.162Z,16.72
2018-08-16T00:43:10.120Z,16.68
2018-08-16T00:44:10.726Z,16.66
2018-08-16T00:45:10.037Z,16.73
2018-08-16T00:46:09.995Z,16.72
2018-08-16T00:47:09.951Z,16.65
2018-08-16T00:48:09.909Z,16.55
2018-08-16T00:49:09.868Z,16.66
2018-08-16T00:50:09.823Z,16.59
2018-08-16T00:51:09.781Z,16.57
2018-08-16T00:52:09.739Z,16.61
2018-08-16T00:53:09.698Z,16.64
2018-08-16T00:54:09.656Z,16.58
2018-08-16T00:55:09.619Z,16.59
2018-08-16T00:56:09.570Z,16.58
2018-08-16T00:57:09.533Z,16.62
2018-08-16T00:58:09.488Z,16.61
2018-08-16T00:59:09.448Z,16.57
2018-08-16T01:00:09.402Z,16.55
2018-08-16T01:01:09.359Z,16.50
2018-08-16T01:02:09.324Z,16.54
2018-08-16T01:03:09.275Z,16.57
2018-08-16T01:04:09.230Z,16.51
2018-08-16T01:05:09.192Z,16.51
2018-08-16T01:06:09.146Z,16.51
2018-08-16T01:07:09.104Z,16.54
2018-08-16T01:08:09.063Z,16.54
2018-08-16T01:09:09.067Z,16.50
2018-08-16T01:10:08.975Z,16.55
2018-08-16T01:11:08.932Z,16.43
2018-08-16T01:12:08.892Z,16.41
2018-08-16T01:13:08.849Z,16.46
2018-08-16T01:14:08.907Z,16.43
2018-08-16T01:15:08.894Z,16.46
2018-08-16T01:16:08.721Z,16.43
2018-08-16T01:17:08.682Z,16.41
2018-08-16T01:18:08.644Z,16.41
2018-08-16T01:19:08.595Z,16.43
2018-08-16T01:20:08.607Z,16.39
2018-08-16T01:21:08.517Z,16.39
2018-08-16T01:22:08.471Z,16.44
2018-08-16T01:23:08.434Z,16.37
2018-08-16T01:24:08.433Z,16.29
2018-08-16T01:25:08.341Z,16.37
2018-08-16T01:26:08.298Z,16.37
2018-08-16T01:27:08.270Z,16.34
2018-08-16T01:28:08.212Z,16.34
2018-08-16T01:29:08.169Z,16.34
2018-08-16T01:30:08.131Z,16.36
2018-08-16T01:31:08.155Z,16.36
2018-08-16T01:32:08.203Z,16.26
2018-08-16T01:33:08.001Z,16.28
2018-08-16T01:34:08.058Z,16.37
2018-08-16T01:35:07.916Z,16.32
2018-08-16T01:36:07.873Z,16.34
2018-08-16T01:37:07.831Z,16.26
2018-08-16T01:38:07.793Z,16.34
2018-08-16T01:39:07.745Z,16.37
2018-08-16T01:40:07.708Z,16.34
2018-08-16T01:41:07.660Z,16.36
2018-08-16T01:42:07.618Z,16.25
2018-08-16T01:43:07.575Z,16.32
2018-08-16T01:44:07.638Z,16.26
2018-08-16T01:45:07.526Z,16.26
2018-08-16T01:46:07.450Z,16.32
2018-08-16T01:47:07.498Z,16.24
2018-08-16T01:48:07.364Z,16.26
2018-08-16T01:49:07.323Z,16.26
2018-08-16T01:50:07.280Z,16.26
2018-08-16T01:51:07.238Z,16.28
2018-08-16T01:52:07.256Z,16.28
2018-08-16T01:53:07.150Z,16.22
2018-08-16T01:54:07.113Z,16.25
2018-08-16T01:55:07.073Z,16.13
2018-08-16T01:56:07.022Z,16.17
2018-08-16T01:57:07.059Z,16.18
2018-08-16T01:58:06.939Z,16.13
2018-08-16T01:59:06.896Z,16.17
2018-08-16T02:00:06.865Z,16.17
2018-08-16T02:01:06.814Z,16.26
2018-08-16T02:02:06.770Z,16.16
2018-08-16T02:03:06.748Z,16.16
2018-08-16T02:04:06.682Z,16.22
2018-08-16T02:05:06.680Z,16.21
2018-08-16T02:06:06.601Z,16.16
2018-08-16T02:07:06.670Z,16.21
2018-08-16T02:08:06.516Z,16.28
2018-08-16T02:09:06.470Z,16.22
2018-08-16T02:10:06.428Z,16.09
2018-08-16T02:11:06.389Z,16.16
2018-08-16T02:12:06.346Z,16.22
2018-08-16T02:13:06.300Z,16.17
2018-08-16T02:14:06.259Z,16.09
2018-08-16T02:15:06.357Z,16.18
2018-08-16T02:16:06.174Z,16.16
2018-08-16T02:17:06.134Z,16.21
2018-08-16T02:18:06.584Z,16.18
2018-08-16T02:19:06.044Z,16.16
2018-08-16T02:20:06.005Z,16.18
2018-08-16T02:21:05.964Z,16.18
2018-08-16T02:22:05.917Z,16.21
2018-08-16T02:23:05.975Z,16.16
2018-08-16T02:24:05.831Z,16.13
2018-08-16T02:25:05.790Z,16.10
2018-08-16T02:26:05.748Z,16.13
2018-08-16T02:27:05.707Z,16.12
2018-08-16T02:28:05.662Z,16.16
2018-08-16T02:29:05.833Z,16.06
2018-08-16T02:30:05.589Z,16.12
2018-08-16T02:31:05.551Z,16.18
2018-08-16T02:32:05.497Z,16.09
2018-08-16T02:33:05.452Z,16.12
2018-08-16T02:34:05.507Z,16.16
2018-08-16T02:35:05.364Z,16.16
2018-08-16T02:36:05.321Z,16.10
2018-08-16T02:37:05.287Z,16.12
2018-08-16T02:38:05.239Z,16.16
2018-08-16T02:39:05.194Z,16.12
2018-08-16T02:40:05.154Z,16.12
2018-08-16T02:41:05.110Z,16.12
2018-08-16T02:42:05.067Z,16.12
2018-08-16T02:43:05.027Z,16.10
2018-08-16T02:44:04.987Z,16.08
2018-08-16T02:45:04.943Z,16.12
2018-08-16T02:46:04.895Z,16.09
2018-08-16T02:47:04.853Z,16.10
2018-08-16T02:48:04.809Z,16.12
2018-08-16T02:49:04.768Z,16.16
2018-08-16T02:50:04.726Z,16.02
2018-08-16T02:51:04.683Z,16.08
2018-08-16T02:52:04.639Z,16.12
2018-08-16T02:53:04.598Z,16.02
2018-08-16T02:54:04.553Z,16.12
2018-08-16T02:55:04.516Z,16.05
2018-08-16T02:56:04.498Z,16.12
2018-08-16T02:57:04.427Z,16.16
2018-08-16T02:58:04.388Z,16.08
2018-08-16T02:59:04.342Z,16.08
2018-08-16T03:00:04.302Z,16.12
2018-08-16T03:01:04.257Z,16.17
2018-08-16T03:02:04.219Z,16.09
2018-08-16T03:03:04.172Z,16.09
2018-08-16T03:04:04.134Z,16.09
2018-08-16T03:05:04.092Z,16.02
2018-08-16T03:06:04.052Z,16.10
2018-08-16T03:07:04.000Z,16.05
2018-08-16T03:08:03.957Z,16.13
2018-08-16T03:09:03.916Z,16.03
2018-08-16T03:10:03.875Z,16.00
2018-08-16T03:11:03.836Z,16.10
2018-08-16T03:12:03.789Z,16.12
2018-08-16T03:13:03.752Z,16.02
2018-08-16T03:14:03.703Z,16.05
2018-08-16T03:15:03.660Z,16.08
2018-08-16T03:16:03.619Z,16.05
2018-08-16T03:17:03.576Z,16.00
2018-08-16T03:18:03.537Z,16.09
2018-08-16T03:19:03.492Z,16.05
2018-08-16T03:20:03.445Z,16.02
2018-08-16T03:21:03.404Z,16.03
2018-08-16T03:22:03.363Z,16.05
2018-08-16T03:23:03.319Z,16.10
2018-08-16T03:24:03.276Z,16.05
2018-08-16T03:25:03.232Z,16.00
2018-08-16T03:26:03.194Z,16.08
2018-08-16T03:27:03.147Z,16.02
2018-08-16T03:28:03.105Z,16.08
2018-08-16T03:29:03.066Z,16.08
2018-08-16T03:30:03.027Z,16.03
2018-08-16T03:31:02.977Z,15.99
2018-08-16T03:32:02.937Z,16.05
2018-08-16T03:33:02.908Z,16.08
2018-08-16T03:34:02.862Z,16.02
2018-08-16T03:35:02.810Z,16.00
2018-08-16T03:36:02.770Z,16.02
2018-08-16T03:37:02.726Z,15.99
2018-08-16T03:38:02.683Z,15.99
2018-08-16T03:39:02.636Z,15.99
2018-08-16T03:40:02.595Z,16.06
2018-08-16T03:41:02.555Z,16.03
2018-08-16T03:42:02.509Z,16.02
2018-08-16T03:43:02.467Z,15.92
2018-08-16T03:44:02.428Z,15.92
2018-08-16T03:45:02.387Z,15.98
2018-08-16T03:46:02.339Z,16.02
2018-08-16T03:47:02.296Z,16.03
2018-08-16T03:48:02.311Z,15.91
2018-08-16T03:49:02.212Z,15.94
2018-08-16T03:50:02.168Z,15.88
2018-08-16T03:51:02.126Z,15.94
2018-08-16T03:52:02.090Z,15.92
2018-08-16T03:53:02.040Z,15.99
2018-08-16T03:54:01.998Z,15.94
2018-08-16T03:55:01.957Z,15.91
2018-08-16T03:56:01.916Z,15.90
2018-08-16T03:57:01.872Z,15.94
2018-08-16T03:58:01.829Z,15.90
2018-08-16T03:59:01.785Z,15.91
2018-08-16T04:00:01.790Z,15.94
2018-08-16T04:01:01.702Z,15.90
2018-08-16T04:02:01.661Z,15.96
2018-08-16T04:03:01.614Z,15.91
2018-08-16T04:04:01.572Z,15.90
2018-08-16T04:05:01.529Z,15.88
2018-08-16T04:06:01.489Z,15.90
2018-08-16T04:07:01.447Z,15.94
2018-08-16T04:08:01.402Z,15.90
2018-08-16T04:09:01.359Z,15.91
2018-08-16T04:10:01.316Z,15.88
2018-08-16T04:11:01.277Z,15.81
2018-08-16T04:12:01.235Z,15.85
2018-08-16T04:13:01.188Z,15.88
2018-08-16T04:14:01.146Z,15.91
2018-08-16T04:15:01.102Z,15.85
2018-08-16T04:16:01.059Z,15.91
2018-08-16T04:17:01.020Z,15.88
2018-08-16T04:18:00.975Z,15.94
2018-08-16T04:19:00.931Z,15.90
2018-08-16T04:20:00.889Z,15.91
2018-08-16T04:21:00.850Z,15.90
2018-08-16T04:22:00.804Z,15.91
2018-08-16T04:23:00.762Z,15.94
2018-08-16T04:24:00.718Z,15.99
2018-08-16T04:25:00.675Z,15.94
2018-08-16T04:26:00.634Z,15.98
2018-08-16T04:27:00.590Z,15.98
2018-08-16T04:28:00.547Z,15.99
2018-08-16T04:29:00.560Z,15.94
2018-08-16T04:30:00.461Z,15.96
2018-08-16T04:31:00.419Z,15.99
2018-08-16T04:32:00.375Z,15.98
2018-08-16T04:33:00.333Z,16.00
2018-08-16T04:34:00.292Z,16.02
2018-08-16T04:35:00.274Z,15.98
2018-08-16T04:36:00.206Z,16.00
2018-08-16T04:37:00.163Z,15.99
2018-08-16T04:38:00.120Z,15.99
2018-08-16T04:39:00.079Z,16.06
2018-08-16T04:40:00.039Z,16.08
2018-08-16T04:40:59.995Z,16.09
2018-08-16T04:41:59.987Z,16.10
2018-08-16T04:42:59.905Z,16.08
2018-08-16T04:43:59.863Z,16.09
2018-08-16T04:44:59.821Z,16.16
2018-08-16T04:45:59.780Z,16.18
2018-08-16T04:46:59.735Z,16.18
2018-08-16T04:47:59.697Z,16.22
2018-08-16T04:48:59.649Z,16.28
2018-08-16T04:49:59.607Z,16.13
2018-08-16T04:50:59.565Z,16.10
2018-08-16T04:51:59.523Z,16.24
2018-08-16T04:52:59.479Z,16.28
2018-08-16T04:53:59.438Z,16.24
2018-08-16T04:54:59.395Z,16.28
2018-08-16T04:55:59.352Z,16.36
2018-08-16T04:56:59.385Z,16.28
2018-08-16T04:57:59.271Z,16.39
2018-08-16T04:58:59.226Z,16.32
2018-08-16T04:59:59.181Z,16.41
2018-08-16T05:00:59.140Z,16.41
2018-08-16T05:01:59.097Z,16.50
2018-08-16T05:02:59.054Z,16.54
2018-08-16T05:03:59.012Z,16.54
2018-08-16T05:04:58.970Z,16.59
2018-08-16T05:05:58.930Z,16.59
2018-08-16T05:06:58.883Z,16.62
2018-08-16T05:07:58.842Z,16.64
2018-08-16T05:08:58.800Z,16.66
2018-08-16T05:09:58.765Z,16.76
2018-08-16T05:10:58.723Z,16.77
2018-08-16T05:11:58.671Z,16.77
2018-08-16T05:12:58.629Z,16.69
2018-08-16T05:13:58.587Z,16.82
2018-08-16T05:14:58.547Z,16.83
2018-08-16T05:15:58.503Z,16.86
2018-08-16T05:16:58.461Z,16.89
2018-08-16T05:17:58.417Z,16.89
2018-08-16T05:18:58.375Z,16.91
2018-08-16T05:19:58.333Z,17.07
2018-08-16T05:20:58.292Z,17.04
2018-08-16T05:21:58.248Z,17.10
2018-08-16T05:22:58.207Z,17.10
2018-08-16T05:23:58.270Z,17.09
2018-08-16T05:24:58.121Z,17.17
2018-08-16T05:25:58.082Z,17.13
2018-08-16T05:26:58.035Z,17.24
2018-08-16T05:27:57.994Z,17.27
2018-08-16T05:28:57.951Z,17.35
2018-08-16T05:29:57.910Z,17.32
2018-08-16T05:30:57.867Z,17.38
2018-08-16T05:31:57.827Z,17.30
2018-08-16T05:32:57.791Z,17.38
2018-08-16T05:33:57.741Z,17.41
2018-08-16T05:34:57.698Z,17.46
2018-08-16T05:35:57.655Z,17.52
2018-08-16T05:36:57.614Z,17.52
2018-08-16T05:37:57.575Z,17.56
2018-08-16T05:38:57.540Z,17.53
2018-08-16T05:39:57.490Z,17.60
2018-08-16T05:40:57.449Z,17.63
2018-08-16T05:41:57.404Z,17.71
2018-08-16T05:42:57.417Z,17.68
2018-08-16T05:43:57.320Z,17.76
2018-08-16T05:44:57.278Z,17.82
2018-08-16T05:45:57.241Z,17.82
2018-08-16T05:46:57.191Z,17.82
2018-08-16T05:47:57.150Z,17.94
2018-08-16T05:48:57.108Z,17.95
2018-08-16T05:49:57.066Z,17.97
2018-08-16T05:50:57.029Z,18.03
2018-08-16T05:51:56.989Z,18.06
2018-08-16T05:52:56.943Z,18.12
2018-08-16T05:53:56.900Z,18.06
2018-08-16T05:54:56.856Z,18.09
2018-08-16T05:55:56.815Z,18.18
2018-08-16T05:56:56.773Z,18.28
2018-08-16T05:57:56.731Z,18.27
2018-08-16T05:58:56.689Z,18.27
2018-08-16T05:59:56.647Z,18.31
2018-08-16T06:00:56.615Z,18.42
2018-08-16T06:01:56.567Z,18.37
2018-08-16T06:02:56.529Z,18.42
2018-08-16T06:03:56.507Z,18.48
2018-08-16T06:06:56.358Z,18.55
2018-08-16T06:07:56.323Z,18.60
2018-08-16T06:08:56.273Z,18.58
2018-08-16T06:09:56.234Z,18.67
2018-08-16T06:10:56.191Z,18.70
2018-08-16T06:11:56.148Z,18.71
2018-08-16T06:12:56.108Z,18.74
2018-08-16T06:13:56.064Z,18.78
2018-08-16T06:14:56.024Z,18.89
2018-08-16T06:15:55.983Z,18.89
2018-08-16T06:16:55.943Z,18.83
2018-08-16T06:17:55.903Z,18.88
2018-08-16T06:18:55.858Z,19.04
2018-08-16T06:19:55.815Z,19.00
2018-08-16T06:20:55.774Z,19.09
2018-08-16T06:21:55.734Z,19.07
2018-08-16T06:22:55.691Z,19.11
2018-08-16T06:23:55.684Z,19.20
2018-08-16T06:24:55.611Z,19.30
2018-08-16T06:25:55.569Z,19.23
2018-08-16T06:26:55.529Z,19.27
2018-08-16T06:27:55.490Z,19.35
2018-08-16T06:28:55.445Z,19.27
2018-08-16T06:29:55.401Z,19.30
2018-08-16T06:30:55.360Z,19.41
2018-08-16T06:31:55.318Z,19.48
2018-08-16T06:32:55.276Z,19.53
2018-08-16T06:33:55.240Z,19.57
2018-08-16T06:34:55.196Z,19.57
2018-08-16T06:35:55.151Z,19.62
2018-08-16T06:36:55.112Z,19.72
2018-08-16T06:37:55.073Z,19.75
2018-08-16T06:38:55.116Z,19.78
2018-08-16T06:39:54.995Z,19.75
2018-08-16T06:40:54.955Z,19.84
2018-08-16T06:41:54.911Z,19.87
2018-08-16T06:42:54.869Z,19.92
2018-08-16T06:43:54.830Z,19.90
2018-08-16T06:44:54.787Z,19.94
2018-08-16T06:45:54.743Z,20.00
2018-08-16T06:46:54.699Z,20.07
2018-08-16T06:47:54.663Z,20.15
2018-08-16T06:48:54.618Z,20.12
2018-08-16T06:49:54.577Z,20.12
2018-08-16T06:50:54.536Z,20.19
2018-08-16T06:51:54.498Z,20.26
2018-08-16T06:52:54.454Z,20.29
2018-08-16T06:53:54.412Z,20.32
2018-08-16T06:54:54.373Z,20.21
2018-08-16T06:55:54.331Z,20.33
2018-08-16T06:56:54.292Z,20.39
2018-08-16T06:57:54.251Z,20.36
2018-08-16T06:58:54.208Z,20.48
2018-08-16T06:59:54.167Z,20.39
2018-08-16T07:00:54.131Z,20.39
2018-08-16T07:01:54.087Z,20.56
2018-08-16T07:02:54.043Z,20.55
2018-08-16T07:03:54.014Z,20.64
2018-08-16T07:04:54.021Z,20.66
2018-08-16T07:05:53.923Z,20.71
2018-08-16T07:06:53.885Z,20.67
2018-08-16T07:07:53.844Z,20.71
2018-08-16T07:08:53.801Z,20.71
2018-08-16T07:09:53.759Z,20.77
2018-08-16T07:10:53.719Z,20.77
2018-08-16T07:11:53.723Z,20.78
2018-08-16T07:12:53.637Z,20.83
2018-08-16T07:13:53.599Z,20.85
2018-08-16T07:14:53.554Z,20.93
2018-08-16T07:15:53.520Z,20.96
2018-08-16T07:16:53.474Z,21.03
2018-08-16T07:17:53.435Z,21.07
2018-08-16T07:18:53.471Z,20.96
2018-08-16T07:19:53.352Z,21.03
2018-08-16T07:20:53.314Z,21.11
2018-08-16T07:21:53.276Z,21.10
2018-08-16T07:22:53.233Z,21.17
2018-08-16T07:23:53.195Z,21.17
2018-08-16T07:24:53.267Z,21.22
2018-08-16T07:25:53.110Z,21.29
2018-08-16T07:26:53.077Z,21.30
2018-08-16T07:27:53.030Z,21.33
2018-08-16T07:28:52.991Z,21.32
2018-08-16T07:29:52.981Z,21.28
2018-08-16T07:30:52.909Z,21.35
2018-08-16T07:31:52.868Z,21.43
2018-08-16T07:32:52.834Z,21.37
2018-08-16T07:33:52.787Z,21.50
2018-08-16T07:34:52.745Z,21.47
2018-08-16T07:35:52.705Z,21.51
2018-08-16T07:36:52.665Z,21.54
2018-08-16T07:37:52.626Z,21.51
2018-08-16T07:38:52.586Z,21.66
2018-08-16T07:39:52.544Z,21.68
2018-08-16T07:40:52.504Z,21.74
2018-08-16T07:41:52.474Z,21.80
2018-08-16T07:42:52.427Z,21.77
2018-08-16T07:43:52.411Z,21.78
2018-08-16T07:44:52.344Z,21.94
2018-08-16T07:45:52.526Z,22.01
2018-08-16T07:46:52.263Z,22.08
2018-08-16T07:47:52.225Z,22.19
2018-08-16T07:48:52.185Z,22.22
2018-08-16T07:49:52.144Z,22.34
2018-08-16T07:50:52.127Z,22.38
2018-08-16T07:51:52.092Z,22.49
2018-08-16T07:52:52.027Z,22.61
2018-08-16T07:53:51.984Z,22.71
2018-08-16T07:54:51.944Z,22.70
2018-08-16T07:55:51.904Z,22.89
2018-08-16T07:56:51.915Z,23.08
2018-08-16T07:57:51.825Z,23.11
2018-08-16T07:58:51.786Z,23.16
2018-08-16T07:59:51.745Z,23.40
2018-08-16T08:00:51.706Z,23.51
2018-08-16T08:01:51.667Z,23.62
2018-08-16T08:02:51.627Z,23.84
2018-08-16T08:03:51.586Z,23.89
2018-08-16T08:04:51.546Z,23.92
2018-08-16T08:05:51.508Z,24.10
2018-08-16T08:06:51.467Z,24.28
2018-08-16T08:07:51.430Z,24.31
2018-08-16T08:08:51.453Z,24.37
2018-08-16T08:09:51.496Z,24.53
2018-08-16T08:10:51.312Z,24.51
2018-08-16T08:11:51.274Z,24.58
2018-08-16T08:12:51.239Z,24.51
2018-08-16T08:13:51.198Z,24.51
2018-08-16T08:14:51.153Z,24.51
2018-08-16T08:15:51.122Z,24.53
2018-08-16T08:16:51.081Z,24.62
2018-08-16T08:17:51.036Z,24.61
2018-08-16T08:18:51.000Z,24.62
2018-08-16T08:19:50.960Z,24.59
2018-08-16T08:20:50.923Z,24.59
2018-08-16T08:21:50.886Z,24.62
2018-08-16T08:22:50.844Z,24.61
2018-08-16T08:23:50.802Z,24.69
2018-08-16T08:24:50.765Z,24.65
2018-08-16T08:25:50.735Z,24.68
2018-08-16T08:26:50.686Z,24.69
2018-08-16T08:27:50.650Z,24.65
2018-08-16T08:28:50.649Z,24.69
2018-08-16T08:29:50.580Z,24.65
2018-08-16T08:30:50.581Z,24.61
2018-08-16T08:31:50.507Z,24.63
2018-08-16T08:32:50.456Z,24.62
2018-08-16T08:33:50.416Z,24.61
2018-08-16T08:34:50.381Z,24.59
2018-08-16T08:35:50.338Z,24.65
2018-08-16T08:36:50.300Z,24.59
2018-08-16T08:37:50.263Z,24.63
2018-08-16T08:38:50.281Z,24.61
2018-08-16T08:39:50.185Z,24.58
2018-08-16T08:40:50.148Z,24.55
2018-08-16T08:41:50.106Z,24.62
2018-08-16T08:42:50.066Z,24.78
2018-08-16T08:43:50.033Z,24.66
2018-08-16T08:44:49.994Z,24.69
2018-08-16T08:45:49.952Z,24.65
2018-08-16T08:46:49.918Z,24.63
2018-08-16T08:47:49.874Z,24.58
2018-08-16T08:48:49.837Z,24.65
2018-08-16T08:49:49.795Z,24.84
2018-08-16T08:50:49.756Z,24.65
2018-08-16T08:51:49.719Z,24.71
2018-08-16T08:52:49.686Z,24.71
2018-08-16T08:53:49.642Z,24.82
2018-08-16T08:54:49.604Z,24.88
2018-08-16T08:55:49.567Z,24.89
2018-08-16T08:56:49.532Z,24.99
2018-08-16T08:57:49.486Z,24.92
2018-08-16T08:58:49.453Z,24.99
2018-08-16T08:59:49.413Z,24.93
2018-08-16T09:00:49.374Z,25.03
2018-08-16T09:01:49.333Z,25.12
2018-08-16T09:02:49.298Z,25.14
2018-08-16T09:03:49.260Z,25.22
2018-08-16T09:04:49.219Z,25.31
2018-08-16T09:05:49.183Z,25.43
2018-08-16T09:06:49.163Z,25.52
2018-08-16T09:07:49.104Z,25.51
2018-08-16T09:08:49.066Z,25.56
2018-08-16T09:09:49.025Z,25.66
2018-08-16T09:10:48.986Z,25.70
2018-08-16T09:11:48.947Z,25.77
2018-08-16T09:12:48.911Z,25.73
2018-08-16T09:13:48.882Z,25.81
2018-08-16T09:14:48.859Z,25.83
2018-08-16T09:15:48.797Z,25.91
2018-08-16T09:16:48.760Z,26.01
2018-08-16T09:17:48.722Z,25.89
2018-08-16T09:18:48.681Z,26.01
2018-08-16T09:19:48.643Z,26.06
2018-08-16T09:20:48.605Z,26.07
2018-08-16T09:21:48.568Z,26.08
2018-08-16T09:22:48.533Z,26.11
2018-08-16T09:23:48.494Z,26.16
2018-08-16T09:24:48.461Z,26.23
2018-08-16T09:25:48.416Z,26.24
2018-08-16T09:26:48.377Z,26.22
2018-08-16T09:27:48.341Z,26.37
2018-08-16T09:28:48.300Z,26.42
2018-08-16T09:29:48.264Z,26.42
2018-08-16T09:30:48.225Z,26.48
2018-08-16T09:31:48.188Z,26.53
2018-08-16T09:32:48.151Z,26.51
2018-08-16T09:33:48.118Z,26.61
2018-08-16T09:34:48.081Z,26.79
2018-08-16T09:35:48.037Z,26.79
2018-08-16T09:36:48.005Z,26.86
2018-08-16T09:37:47.961Z,26.81
2018-08-16T09:38:47.924Z,26.83
2018-08-16T09:39:47.963Z,26.91
2018-08-16T09:40:47.850Z,26.97
2018-08-16T09:41:47.815Z,27.01
2018-08-16T09:42:47.791Z,27.08
2018-08-16T09:43:47.738Z,27.13
2018-08-16T09:44:47.705Z,27.15
2018-08-16T09:45:47.746Z,27.25
2018-08-16T09:46:47.622Z,27.33
2018-08-16T09:47:47.585Z,27.38
2018-08-16T09:48:47.552Z,27.34
2018-08-16T09:49:47.514Z,27.44
2018-08-16T09:50:47.475Z,27.53
2018-08-16T09:51:47.466Z,27.60
2018-08-16T09:52:47.399Z,27.75
2018-08-16T09:53:47.366Z,27.76
2018-08-16T09:54:47.328Z,27.90
2018-08-16T09:55:47.289Z,27.93
2018-08-16T09:56:47.250Z,27.94
2018-08-16T09:57:47.213Z,27.97
2018-08-16T09:58:47.176Z,28.06
2018-08-16T09:59:47.167Z,28.09
2018-08-16T10:00:47.104Z,28.10
2018-08-16T10:01:47.068Z,28.08
2018-08-16T10:02:47.027Z,28.03
2018-08-16T10:03:46.991Z,28.15
2018-08-16T10:04:46.960Z,28.23
2018-08-16T10:05:46.918Z,28.22
2018-08-16T10:06:46.881Z,28.27
2018-08-16T10:07:46.846Z,28.41
2018-08-16T10:08:46.807Z,28.50
2018-08-16T10:09:46.769Z,28.43
2018-08-16T10:10:46.734Z,28.55
2018-08-16T10:11:46.697Z,28.67
2018-08-16T10:12:46.658Z,28.70
2018-08-16T10:13:46.624Z,28.68
2018-08-16T10:14:46.599Z,28.77
2018-08-16T10:15:46.551Z,28.96
2018-08-16T10:16:46.514Z,28.93
2018-08-16T10:17:46.477Z,29.02
2018-08-16T10:18:46.441Z,28.94
2018-08-16T10:19:46.409Z,29.10
2018-08-16T10:20:46.438Z,29.02
2018-08-16T10:21:46.334Z,29.13
2018-08-16T10:22:46.300Z,29.20
2018-08-16T10:23:46.260Z,29.24
2018-08-16T10:24:46.226Z,29.35
2018-08-16T10:25:46.187Z,29.37
2018-08-16T10:26:46.149Z,29.40
2018-08-16T10:27:46.121Z,29.43
2018-08-16T10:28:46.078Z,29.25
2018-08-16T10:29:46.046Z,29.21
2018-08-16T10:30:46.003Z,29.28
2018-08-16T10:31:45.969Z,29.34
2018-08-16T10:32:45.932Z,29.37
2018-08-16T10:33:45.895Z,29.40
2018-08-16T10:34:45.862Z,29.34
2018-08-16T10:35:45.822Z,29.44
2018-08-16T10:36:45.785Z,29.50
2018-08-16T10:37:45.752Z,29.49
2018-08-16T10:38:45.713Z,29.52
2018-08-16T10:39:45.678Z,29.49
2018-08-16T10:40:46.345Z,29.40
2018-08-16T10:41:45.605Z,29.43
2018-08-16T10:42:45.569Z,29.47
2018-08-16T10:43:45.532Z,29.55
2018-08-16T10:44:45.498Z,29.55
2018-08-16T10:45:45.511Z,29.67
2018-08-16T10:46:45.427Z,29.69
2018-08-16T10:47:45.397Z,29.76
2018-08-16T10:48:45.354Z,29.84
2018-08-16T10:49:45.320Z,29.80
2018-08-16T10:50:45.280Z,29.94
2018-08-16T10:51:45.244Z,30.01
2018-08-16T10:52:45.232Z,30.13
2018-08-16T10:53:45.173Z,30.11
2018-08-16T10:54:45.141Z,30.27
2018-08-16T10:55:45.101Z,30.27
2018-08-16T10:56:45.068Z,30.33
2018-08-16T10:57:45.034Z,30.40
2018-08-16T10:58:44.994Z,30.46
2018-08-16T10:59:44.956Z,30.52
2018-08-16T11:00:44.932Z,30.61
2018-08-16T11:01:44.887Z,30.63
2018-08-16T11:02:44.849Z,30.62
2018-08-16T11:03:44.818Z,30.61
2018-08-16T11:04:44.780Z,30.69
2018-08-16T11:05:44.745Z,30.67
2018-08-16T11:06:44.707Z,30.77
2018-08-16T11:07:44.673Z,30.76
2018-08-16T11:08:44.640Z,30.74
2018-08-16T11:09:44.606Z,30.74
2018-08-16T11:10:44.568Z,30.81
2018-08-16T11:11:44.530Z,30.62
2018-08-16T11:12:44.503Z,30.49
2018-08-16T11:13:44.462Z,30.54
2018-08-16T11:14:44.430Z,30.52
2018-08-16T11:15:44.392Z,30.59
2018-08-16T11:16:44.356Z,30.65
2018-08-16T11:17:44.318Z,30.70
2018-08-16T11:18:44.317Z,30.77
2018-08-16T11:19:44.264Z,30.78
2018-08-16T11:20:44.214Z,30.80
2018-08-16T11:21:44.185Z,30.92
2018-08-16T11:22:44.152Z,30.99
2018-08-16T11:23:44.106Z,30.98
2018-08-16T11:24:44.072Z,31.05
2018-08-16T11:25:44.037Z,31.14
2018-08-16T11:26:44.001Z,31.22
2018-08-16T11:27:43.966Z,31.35
2018-08-16T11:28:43.932Z,31.36
2018-08-16T11:29:43.901Z,31.50
2018-08-16T11:30:43.860Z,31.48
2018-08-16T11:31:43.827Z,31.45
2018-08-16T11:32:43.791Z,31.47
2018-08-16T11:33:43.760Z,31.54
2018-08-16T11:34:43.722Z,31.50
2018-08-16T11:35:43.686Z,31.62
2018-08-16T11:36:43.652Z,31.55
2018-08-16T11:37:43.625Z,31.59
2018-08-16T11:38:43.581Z,31.50
2018-08-16T11:39:43.548Z,31.55
2018-08-16T11:40:43.568Z,31.72
2018-08-16T11:41:46.678Z,31.70
2018-08-16T11:42:43.444Z,31.95
2018-08-16T11:43:43.407Z,31.95
2018-08-16T11:44:43.373Z,31.89
2018-08-16T11:45:43.339Z,31.92
2018-08-16T11:46:43.319Z,32.00
2018-08-16T11:47:43.268Z,32.02
2018-08-16T11:48:43.232Z,32.00
2018-08-16T11:49:43.201Z,32.02
2018-08-16T11:50:43.165Z,32.09
2018-08-16T11:51:43.130Z,32.11
2018-08-16T11:52:43.095Z,32.24
2018-08-16T11:53:43.061Z,32.19
2018-08-16T11:54:43.025Z,32.27
2018-08-16T11:55:42.997Z,32.41
2018-08-16T11:56:42.960Z,32.51
2018-08-16T11:57:42.959Z,32.59
2018-08-16T11:58:42.936Z,32.67
2018-08-16T11:59:42.868Z,32.72
2018-08-16T12:00:42.821Z,32.76
2018-08-16T12:01:42.785Z,32.78
2018-08-16T12:02:42.753Z,32.85
2018-08-16T12:03:42.715Z,32.78
2018-08-16T12:04:42.683Z,32.90
2018-08-16T12:05:42.649Z,32.82
2018-08-16T12:06:42.612Z,32.88
2018-08-16T12:07:42.581Z,32.91
2018-08-16T12:08:42.547Z,32.97
2018-08-16T12:09:42.512Z,33.01
2018-08-16T12:10:42.476Z,33.04
2018-08-16T12:11:42.445Z,33.09
2018-08-16T12:12:42.408Z,33.19
2018-08-16T12:13:42.377Z,33.26
2018-08-16T12:14:42.358Z,33.17
2018-08-16T12:15:42.308Z,33.29
2018-08-16T12:16:42.274Z,33.22
2018-08-16T12:17:42.241Z,33.36
2018-08-16T12:18:42.208Z,33.36
2018-08-16T12:19:42.174Z,33.47
2018-08-16T12:20:42.139Z,33.42
2018-08-16T12:21:42.105Z,33.48
2018-08-16T12:22:42.087Z,33.50
2018-08-16T12:23:42.037Z,33.45
2018-08-16T12:24:42.005Z,33.50
2018-08-16T12:25:41.968Z,33.47
2018-08-16T12:26:41.933Z,33.36
2018-08-16T12:27:41.901Z,33.35
2018-08-16T12:28:41.868Z,33.48
2018-08-16T12:29:41.835Z,33.32
2018-08-16T12:30:41.798Z,33.19
2018-08-16T12:31:41.765Z,33.13
2018-08-16T12:32:41.737Z,33.15
2018-08-16T12:33:41.700Z,33.05
2018-08-16T12:34:41.722Z,33.04
2018-08-16T12:35:41.633Z,33.01
2018-08-16T12:36:41.598Z,33.01
2018-08-16T12:37:41.593Z,32.95
2018-08-16T12:38:41.530Z,32.93
2018-08-16T12:39:41.496Z,32.79
2018-08-16T12:40:41.494Z,32.68
2018-08-16T12:41:41.430Z,32.71
2018-08-16T12:42:41.393Z,32.68
2018-08-16T12:43:41.360Z,32.75
2018-08-16T12:44:41.327Z,32.63
2018-08-16T12:45:41.293Z,32.67
2018-08-16T12:46:41.258Z,32.66
2018-08-16T12:47:41.235Z,32.54
2018-08-16T12:48:41.192Z,32.57
2018-08-16T12:49:41.161Z,32.57
2018-08-16T12:50:41.120Z,32.57
2018-08-16T12:51:41.092Z,32.46
2018-08-16T12:52:41.053Z,32.51
2018-08-16T12:53:41.068Z,32.31